Time;durP1;ratioP1;P1;durP2;ratioP2;P2;SDS_P1;SDS_P2;PMS_P1;PMS_P2;Temp;Humidity;BMP_temperature;BMP_pressure;BME280_temperature;BME280_humidity;BME280_pressure;Samples;Min_cycle;Max_cycle;Signal;HPM_P1;HPM_P2
2023/10/23 00:01:45;;;;;;;4.55;1.70;;;;;;;24.81;43.82;99662.94;4483852;32;33634;-64
2023/10/23 00:04:12;;;;;;;3.45;1.60;;;;;;;24.81;43.88;99662.12;4483670;32;33768;-64
2023/10/23 00:06:40;;;;;;;7.15;1.90;;;;;;;24.80;43.87;99652.25;4483666;32;34025;-64
2023/10/23 00:09:08;;;;;;;7.85;2.00;;;;;;;24.81;43.86;99662.12;4483398;32;34314;-64
2023/10/23 00:11:36;;;;;;;4.60;1.95;;;;;;;24.80;43.86;99657.72;4485030;32;33839;-63
2023/10/23 00:14:03;;;;;;;3.10;1.67;;;;;;;24.81;43.84;99652.03;4485413;32;33981;-64
2023/10/23 00:16:31;;;;;;;3.25;1.73;;;;;;;24.80;43.84;99649.53;4484080;32;33859;-63
2023/10/23 00:18:59;;;;;;;4.62;1.87;;;;;;;24.80;43.85;99655.00;4485476;32;33979;-64
2023/10/23 00:21:26;;;;;;;4.72;1.50;;;;;;;24.79;43.86;99648.69;4485116;32;34059;-63
2023/10/23 00:23:54;;;;;;;3.80;1.50;;;;;;;24.77;43.87;99650.84;4485283;32;34745;-64
2023/10/23 00:26:21;;;;;;;5.55;2.00;;;;;;;24.78;43.92;99649.78;4485469;32;34395;-64
2023/10/23 00:28:50;;;;;;;4.35;1.80;;;;;;;24.78;43.94;99651.69;4485313;32;34808;-64
2023/10/23 00:31:17;;;;;;;10.02;1.80;;;;;;;24.76;43.95;99657.37;4485222;32;34367;-64
2023/10/23 00:33:45;;;;;;;3.75;1.58;;;;;;;24.76;43.99;99659.25;4485387;32;33983;-64
2023/10/23 00:36:13;;;;;;;2.22;1.27;;;;;;;24.77;43.99;99663.66;4485465;32;33981;-64
2023/10/23 00:38:40;;;;;;;5.70;1.80;;;;;;;24.75;43.94;99658.44;4485207;32;33780;-64
2023/10/23 00:41:08;;;;;;;6.32;1.83;;;;;;;24.75;43.90;99665.78;4485412;32;34298;-64
2023/10/23 00:43:36;;;;;;;2.50;1.40;;;;;;;24.75;43.91;99665.78;4485410;32;33572;-64
2023/10/23 00:46:13;;;;;;;8.52;1.62;;;;;;;24.74;43.96;99664.13;4485119;32;34001;-64
2023/10/23 00:48:41;;;;;;;3.45;1.40;;;;;;;24.75;43.91;99665.78;4484042;32;34285;-64
2023/10/23 00:51:10;;;;;;;2.20;1.58;;;;;;;24.73;43.89;99668.75;4483997;32;33660;-63
2023/10/23 00:53:39;;;;;;;3.37;1.60;;;;;;;24.72;43.94;99672.56;4484160;32;34417;-63
2023/10/23 00:56:07;;;;;;;4.37;1.80;;;;;;;24.74;43.89;99664.13;4484035;32;33769;-64
2023/10/23 00:58:41;;;;;;;3.95;1.73;;;;;;;24.72;43.95;99663.56;4483887;32;34710;-63
2023/10/23 01:01:11;;;;;;;4.12;1.83;;;;;;;24.72;43.98;99663.56;4485193;32;34584;-64
2023/10/23 01:03:39;;;;;;;6.50;1.70;;;;;;;24.71;44.00;99654.50;4485424;32;33991;-64
2023/10/23 01:06:07;;;;;;;4.93;1.80;;;;;;;24.72;44.02;99658.09;4483801;32;34029;-64
2023/10/23 01:08:36;;;;;;;4.70;1.50;;;;;;;24.70;44.08;99658.31;4485160;32;33861;-63
2023/10/23 01:11:03;;;;;;;3.75;1.90;;;;;;;24.71;44.05;99659.16;4485100;32;33312;-64
2023/10/23 01:13:31;;;;;;;3.20;1.40;;;;;;;24.71;44.10;99659.97;4485092;32;33542;-63
2023/10/23 01:15:58;;;;;;;6.30;1.50;;;;;;;24.68;44.10;99655.84;4483856;32;33864;-64
2023/10/23 01:18:26;;;;;;;3.35;1.40;;;;;;;24.68;44.06;99657.75;4485052;32;34882;-64
2023/10/23 01:20:53;;;;;;;2.80;1.42;;;;;;;24.69;44.11;99668.41;4484808;32;33578;-63
2023/10/23 01:23:26;;;;;;;5.53;2.00;;;;;;;24.68;44.13;99665.94;4484450;32;33724;-64
2023/10/23 01:25:54;;;;;;;4.95;1.50;;;;;;;24.69;44.19;99664.84;4471129;32;34448;-64
2023/10/23 01:28:22;;;;;;;2.70;1.40;;;;;;;24.68;44.10;99664.03;4483646;32;33859;-64
2023/10/23 01:30:49;;;;;;;3.78;1.52;;;;;;;24.68;44.08;99674.09;4485059;32;33143;-64
2023/10/23 01:33:17;;;;;;;2.67;1.67;;;;;;;24.67;44.11;99669.72;4484888;32;33960;-64
2023/10/23 01:35:46;;;;;;;4.37;1.60;;;;;;;24.67;44.15;99667.81;4485117;32;33948;-63
2023/10/23 01:38:14;;;;;;;3.25;1.40;;;;;;;24.68;44.19;99664.03;4484812;32;34114;-64
2023/10/23 01:40:41;;;;;;;3.17;1.40;;;;;;;24.68;44.16;99666.75;4485025;32;33645;-64
2023/10/23 01:43:09;;;;;;;2.53;1.42;;;;;;;24.67;44.27;99670.56;4484876;32;34007;-64
2023/10/23 01:45:36;;;;;;;3.20;1.40;;;;;;;24.67;44.29;99670.56;4484908;32;33659;-64
2023/10/23 01:48:05;;;;;;;4.75;1.52;;;;;;;24.68;44.30;99666.75;4484640;32;33464;-64
2023/10/23 01:50:33;;;;;;;3.10;1.52;;;;;;;24.68;44.34;99665.94;4484652;32;33883;-64
2023/10/23 01:53:00;;;;;;;7.15;1.62;;;;;;;24.68;44.31;99655.84;4484828;32;34543;-64
2023/10/23 01:55:28;;;;;;;3.03;1.73;;;;;;;24.68;44.36;99660.47;4483388;32;33942;-64
2023/10/23 01:57:57;;;;;;;4.87;1.58;;;;;;;24.67;44.40;99661.53;4484706;32;34839;-64
2023/10/23 02:00:25;;;;;;;4.32;1.60;;;;;;;24.67;44.34;99661.53;4483562;32;33952;-64
2023/10/23 02:02:54;;;;;;;4.77;1.63;;;;;;;24.66;44.38;99663.41;4483302;32;33086;-64
2023/10/23 02:05:22;;;;;;;4.87;1.50;;;;;;;24.66;44.35;99663.41;4483724;32;33969;-64
2023/10/23 02:07:50;;;;;;;3.60;1.70;;;;;;;24.67;44.39;99667.81;4484717;32;34229;-64
2023/10/23 02:10:18;;;;;;;2.97;1.50;;;;;;;24.66;44.41;99671.59;4484587;32;33580;-64
2023/10/23 02:12:46;;;;;;;4.20;1.50;;;;;;;24.66;44.44;99665.31;4484701;32;34772;-64
2023/10/23 02:15:13;;;;;;;4.03;1.33;;;;;;;24.66;44.44;99665.31;4484628;32;34734;-64
2023/10/23 02:17:41;;;;;;;4.95;1.33;;;;;;;24.65;44.45;99659.03;4484440;32;34126;-64
2023/10/23 02:20:09;;;;;;;3.20;1.30;;;;;;;24.66;44.41;99663.41;4484566;32;34681;-64
2023/10/23 02:22:37;;;;;;;3.72;1.37;;;;;;;24.65;44.44;99659.03;4484602;32;33522;-64
2023/10/23 02:25:05;;;;;;;4.78;1.50;;;;;;;24.67;44.50;99661.53;4484445;32;34007;-64
2023/10/23 02:27:33;;;;;;;2.85;1.50;;;;;;;24.66;44.49;99666.13;4484595;32;33973;-64
2023/10/23 02:30:01;;;;;;;2.67;1.30;;;;;;;24.66;44.49;99657.97;4484568;32;33721;-64
2023/10/23 02:32:28;;;;;;;4.37;1.30;;;;;;;24.65;44.47;99664.50;4484446;32;34129;-64
2023/10/23 02:34:56;;;;;;;3.42;1.55;;;;;;;24.66;44.52;99663.41;4484467;32;33954;-64
2023/10/23 02:37:24;;;;;;;3.08;1.35;;;;;;;24.64;44.49;99668.28;4484722;32;34764;-64
2023/10/23 02:39:53;;;;;;;2.97;1.30;;;;;;;24.65;44.44;99664.50;4484392;32;33186;-65
2023/10/23 02:42:21;;;;;;;6.03;2.05;;;;;;;24.65;44.46;99669.12;4484413;32;33905;-64
2023/10/23 02:44:49;;;;;;;2.25;1.50;;;;;;;24.66;44.38;99670.78;4484537;32;33642;-64
2023/10/23 02:47:16;;;;;;;5.37;1.60;;;;;;;24.64;44.40;99668.28;4484317;32;34938;-64
2023/10/23 02:49:44;;;;;;;3.33;1.45;;;;;;;24.64;44.45;99676.47;4483100;32;33537;-64
2023/10/23 02:52:12;;;;;;;4.30;2.12;;;;;;;24.65;44.38;99671.84;4484423;32;33953;-64
2023/10/23 02:54:39;;;;;;;3.45;1.33;;;;;;;24.64;44.48;99673.75;4484378;32;33193;-64
2023/10/23 02:57:07;;;;;;;3.85;1.23;;;;;;;24.65;44.44;99680.03;4484458;32;34070;-64
2023/10/23 02:59:35;;;;;;;4.75;1.40;;;;;;;24.64;44.47;99675.66;4484376;32;33602;-64
2023/10/23 03:02:02;;;;;;;2.53;1.25;;;;;;;24.63;44.49;99674.81;4484282;32;33475;-63
2023/10/23 03:04:30;;;;;;;3.65;1.58;;;;;;;24.64;44.48;99683.84;4484399;32;34981;-64
2023/10/23 03:06:58;;;;;;;4.45;1.40;;;;;;;24.62;44.47;99677.75;4483108;32;34130;-64
2023/10/23 03:09:25;;;;;;;3.60;1.42;;;;;;;24.62;44.44;99681.34;4484371;32;33620;-63
2023/10/23 03:11:54;;;;;;;3.70;1.62;;;;;;;24.63;44.48;99684.91;4484295;32;33636;-64
2023/10/23 03:14:22;;;;;;;3.50;1.45;;;;;;;24.61;44.46;99681.56;4484393;32;34144;-63
2023/10/23 03:16:49;;;;;;;3.37;1.40;;;;;;;24.62;44.46;99681.34;4484232;32;33912;-63
2023/10/23 03:19:19;;;;;;;2.95;1.60;;;;;;;24.60;44.42;99685.38;4484397;32;33741;-64
2023/10/23 03:21:48;;;;;;;4.47;1.40;;;;;;;24.61;44.49;99684.28;4484032;32;33851;-63
2023/10/23 03:24:15;;;;;;;5.40;1.30;;;;;;;24.60;44.45;99680.75;4484093;32;34771;-64
2023/10/23 03:26:44;;;;;;;1.83;1.20;;;;;;;24.60;44.47;99680.75;4484123;32;34978;-63
2023/10/23 03:29:12;;;;;;;3.78;1.40;;;;;;;24.59;44.49;99689.19;4483888;32;34117;-64
2023/10/23 03:31:39;;;;;;;1.60;1.05;;;;;;;24.59;44.50;99689.19;4484019;32;33803;-63
2023/10/23 03:34:07;;;;;;;2.67;1.20;;;;;;;24.58;44.49;99696.53;4484063;32;34019;-63
2023/10/23 03:36:35;;;;;;;2.87;1.30;;;;;;;24.58;44.43;99704.72;4483809;32;34202;-63
2023/10/23 03:39:03;;;;;;;3.87;1.70;;;;;;;24.58;44.50;99690.25;4483989;32;33347;-64
2023/10/23 03:41:31;;;;;;;3.08;1.23;;;;;;;24.58;44.45;99691.06;4483916;32;35436;-65
2023/10/23 03:44:01;;;;;;;3.47;1.37;;;;;;;24.58;44.49;99692.97;4483781;32;33701;-63
2023/10/23 03:46:30;;;;;;;3.00;1.30;;;;;;;24.57;44.47;99692.12;4482218;32;33756;-63
2023/10/23 03:48:58;;;;;;;4.80;1.58;;;;;;;24.58;44.50;99695.69;4483842;32;33660;-63
2023/10/23 03:51:26;;;;;;;2.45;1.55;;;;;;;24.58;44.46;99696.53;4483663;32;33816;-64
2023/10/23 03:53:53;;;;;;;2.37;1.17;;;;;;;24.57;44.37;99697.56;4482648;32;33772;-64
2023/10/23 03:56:21;;;;;;;4.07;1.98;;;;;;;24.56;44.40;99701.38;4483694;32;35050;-63
2023/10/23 03:58:48;;;;;;;2.72;1.45;;;;;;;24.57;44.42;99700.31;4483542;32;33603;-63
2023/10/23 04:01:16;;;;;;;5.70;1.35;;;;;;;24.56;44.52;99695.91;4483922;32;33973;-63
2023/10/23 04:03:44;;;;;;;3.97;1.42;;;;;;;24.57;44.46;99696.75;4483686;32;33726;-64
2023/10/23 04:06:11;;;;;;;1.70;1.17;;;;;;;24.56;44.55;99698.66;4483475;32;34396;-64
2023/10/23 04:08:39;;;;;;;2.47;1.45;;;;;;;24.56;44.50;99708.72;4483543;32;33638;-64
2023/10/23 04:11:08;;;;;;;2.67;1.42;;;;;;;24.55;44.53;99707.91;4483573;32;34003;-64
2023/10/23 04:13:35;;;;;;;3.33;1.33;;;;;;;24.55;44.46;99713.34;4483376;32;33639;-64
2023/10/23 04:16:03;;;;;;;2.20;1.20;;;;;;;24.55;44.51;99712.53;4483463;32;33998;-63
2023/10/23 04:18:31;;;;;;;2.62;1.27;;;;;;;24.55;44.55;99718.00;4483458;32;33633;-63
2023/10/23 04:21:05;;;;;;;3.33;1.20;;;;;;;24.56;44.49;99719.63;4483272;32;33543;-63
2023/10/23 04:23:37;;;;;;;2.80;1.23;;;;;;;24.55;44.54;99718.81;4483459;32;34916;-64
2023/10/23 04:26:05;;;;;;;4.20;1.25;;;;;;;24.53;44.56;99729.16;4483224;32;34036;-64
2023/10/23 04:28:33;;;;;;;2.47;1.40;;;;;;;24.53;44.60;99729.16;4483299;32;33756;-63
2023/10/23 04:31:00;;;;;;;3.15;1.58;;;;;;;24.53;44.62;99729.16;4482108;32;34514;-64
2023/10/23 04:33:28;;;;;;;3.83;1.20;;;;;;;24.53;44.63;99720.97;4483014;32;33361;-64
2023/10/23 04:35:56;;;;;;;3.00;1.30;;;;;;;24.53;44.70;99726.41;4483161;32;34827;-63
2023/10/23 04:38:24;;;;;;;4.28;1.40;;;;;;;24.52;44.69;99722.00;4481985;32;33618;-63
2023/10/23 04:40:53;;;;;;;2.17;1.30;;;;;;;24.52;44.66;99722.00;4483043;32;34502;-64
2023/10/23 04:43:21;;;;;;;3.12;1.48;;;;;;;24.53;44.70;99722.81;4483187;32;33873;-64
2023/10/23 04:45:48;;;;;;;2.78;1.42;;;;;;;24.53;44.67;99726.41;4483040;32;34851;-64
2023/10/23 04:48:16;;;;;;;3.08;1.40;;;;;;;24.52;44.60;99732.09;4482829;32;33622;-64
2023/10/23 04:50:44;;;;;;;2.70;1.23;;;;;;;24.51;44.69;99728.53;4482951;32;34444;-64
2023/10/23 04:53:11;;;;;;;5.65;1.37;;;;;;;24.51;44.75;99723.06;4482960;32;33717;-64
2023/10/23 04:55:39;;;;;;;2.92;1.27;;;;;;;24.51;44.70;99733.97;4481517;32;34923;-64
2023/10/23 04:58:07;;;;;;;3.47;1.85;;;;;;;24.50;44.78;99735.06;4484143;32;33420;-64
2023/10/23 05:00:36;;;;;;;4.57;1.73;;;;;;;24.51;44.80;99736.72;4485380;32;33946;-64
2023/10/23 05:03:03;;;;;;;2.78;1.33;;;;;;;24.50;44.78;99735.06;4485030;32;33996;-64
2023/10/23 05:05:31;;;;;;;3.80;1.17;;;;;;;24.51;44.74;99733.16;4485478;32;33862;-64
2023/10/23 05:07:59;;;;;;;3.55;1.40;;;;;;;24.50;44.75;99729.59;4485189;32;33553;-64
2023/10/23 05:10:27;;;;;;;2.90;1.52;;;;;;;24.50;44.72;99726.06;4483899;32;33912;-64
2023/10/23 05:12:55;;;;;;;2.80;1.23;;;;;;;24.50;44.75;99732.34;4485166;32;33918;-64
2023/10/23 05:15:24;;;;;;;3.03;1.33;;;;;;;24.49;44.79;99735.31;4484982;32;34933;-64
2023/10/23 05:17:51;;;;;;;3.42;1.42;;;;;;;24.49;44.82;99727.94;4485408;32;33562;-63
2023/10/23 05:20:19;;;;;;;3.60;1.42;;;;;;;24.48;44.84;99723.56;4484849;32;34632;-63
2023/10/23 05:22:47;;;;;;;2.85;1.30;;;;;;;24.50;44.80;99723.31;4484860;32;34180;-64
2023/10/23 05:25:14;;;;;;;4.32;1.77;;;;;;;24.50;44.80;99721.41;4484381;32;34915;-64
2023/10/23 05:27:42;;;;;;;6.65;1.40;;;;;;;24.49;44.81;99727.94;4484132;32;33765;-64
2023/10/23 05:30:10;;;;;;;4.15;1.73;;;;;;;24.49;44.74;99729.84;4481988;32;33930;-63
2023/10/23 05:32:38;;;;;;;2.97;1.50;;;;;;;24.49;44.78;99732.56;4482636;32;34963;-64
2023/10/23 05:35:07;;;;;;;3.03;1.30;;;;;;;24.49;44.81;99724.41;4484975;32;34259;-64
2023/10/23 05:37:35;;;;;;;4.97;1.20;;;;;;;24.48;44.71;99733.63;4484795;32;33342;-64
2023/10/23 05:40:04;;;;;;;3.08;1.42;;;;;;;24.48;44.87;99745.38;4484891;32;33974;-64
2023/10/23 05:42:32;;;;;;;;;;;;;;;24.48;44.80;99741.81;4485332;32;33966;-64
2023/10/23 05:45:02;;;;;;;3.40;1.40;;;;;;;24.56;44.65;99755.94;4484891;32;35156;-64
2023/10/23 05:47:31;;;;;;;2.25;1.27;;;;;;;24.49;44.76;99754.41;4483491;32;33697;-64
2023/10/23 05:49:59;;;;;;;2.05;1.05;;;;;;;24.47;44.76;99754.59;4484974;32;33921;-63
2023/10/23 05:52:26;;;;;;;4.53;1.65;;;;;;;24.46;44.79;99763.03;4484631;32;33839;-63
2023/10/23 05:54:54;;;;;;;4.22;1.55;;;;;;;24.46;44.87;99766.59;4484980;32;34023;-64
2023/10/23 05:57:21;;;;;;;4.53;1.55;;;;;;;24.45;44.79;99767.66;4484804;32;33483;-64
2023/10/23 05:59:49;;;;;;;3.40;1.35;;;;;;;24.46;44.83;99769.31;4484520;32;33741;-64
2023/10/23 06:02:16;;;;;;;4.10;1.42;;;;;;;24.45;44.82;99762.22;4484798;32;34034;-63
2023/10/23 06:04:44;;;;;;;3.28;1.20;;;;;;;24.45;44.82;99767.66;4485199;32;33827;-64
2023/10/23 06:07:12;;;;;;;3.97;1.17;;;;;;;24.45;44.76;99770.38;4484610;32;33251;-63
2023/10/23 06:09:40;;;;;;;4.20;1.45;;;;;;;24.46;44.79;99769.31;4484326;32;33717;-64
2023/10/23 06:12:12;;;;;;;4.32;1.30;;;;;;;24.46;44.82;99780.22;4484716;32;34896;-64
2023/10/23 06:14:40;;;;;;;1.87;1.08;;;;;;;24.47;44.91;99775.59;4484703;32;34588;-64
2023/10/23 06:17:08;;;;;;;4.12;1.30;;;;;;;24.45;44.88;99775.84;4484670;32;33298;-64
2023/10/23 06:19:36;;;;;;;2.60;1.20;;;;;;;24.46;44.95;99779.41;4484441;32;34712;-64
2023/10/23 06:22:04;;;;;;;3.53;1.52;;;;;;;24.46;44.95;99785.69;4484536;32;34123;-64
2023/10/23 06:24:31;;;;;;;3.70;1.30;;;;;;;24.46;44.93;99782.13;4484714;32;34895;-64
2023/10/23 06:26:59;;;;;;;2.70;1.20;;;;;;;24.46;44.89;99788.41;4484533;32;34464;-64
2023/10/23 06:29:27;;;;;;;1.80;1.00;;;;;;;24.46;44.93;99796.59;4484515;32;34712;-63
2023/10/23 06:31:55;;;;;;;7.30;1.33;;;;;;;24.46;44.88;99791.12;4484207;32;34047;-63
2023/10/23 06:34:23;;;;;;;2.78;1.30;;;;;;;24.46;44.90;99790.31;4484410;32;34208;-63
2023/10/23 06:36:50;;;;;;;6.95;1.30;;;;;;;24.45;44.91;99794.94;4484405;32;33197;-64
2023/10/23 06:39:18;;;;;;;5.65;1.52;;;;;;;24.45;44.96;99794.94;4484343;32;33823;-63
2023/10/23 06:41:46;;;;;;;3.85;1.10;;;;;;;24.46;44.94;99793.88;4484440;32;34514;-65
2023/10/23 06:44:17;;;;;;;1.98;1.10;;;;;;;24.47;44.98;99797.41;4483217;32;34002;-64
2023/10/23 06:46:45;;;;;;;4.28;1.50;;;;;;;24.46;44.97;99793.88;4484458;32;34455;-64
2023/10/23 06:49:13;;;;;;;6.37;1.48;;;;;;;24.48;44.92;99796.34;4484288;32;33639;-63
2023/10/23 06:51:40;;;;;;;4.97;1.45;;;;;;;24.46;44.94;99785.69;4484249;32;34121;-64
2023/10/23 06:54:09;;;;;;;4.82;1.17;;;;;;;24.46;44.92;99791.12;4484315;32;34070;-64
2023/10/23 06:56:36;;;;;;;3.37;1.27;;;;;;;24.46;44.93;99791.12;4484172;32;33686;-65
2023/10/23 06:59:04;;;;;;;5.60;1.77;;;;;;;24.46;44.93;99785.69;4483026;32;33802;-64
2023/10/23 07:01:31;;;;;;;2.62;1.30;;;;;;;24.47;44.99;99791.97;4483405;32;33911;-64
2023/10/23 07:04:11;;;;;;;2.92;1.10;;;;;;;24.46;44.95;99791.12;4484331;32;34154;-64
2023/10/23 07:06:39;;;;;;;2.30;1.20;;;;;;;24.48;44.87;99788.16;4483769;32;33677;-63
2023/10/23 07:09:07;;;;;;;2.62;1.17;;;;;;;24.47;44.89;99802.87;4483559;32;33826;-63
2023/10/23 07:11:34;;;;;;;2.60;1.20;;;;;;;24.48;44.82;99790.91;4481908;32;34139;-65
2023/10/23 07:14:02;;;;;;;4.10;1.42;;;;;;;24.48;44.82;99791.75;4483665;32;34280;-65
2023/10/23 07:16:29;;;;;;;3.90;1.30;;;;;;;24.47;44.29;99787.34;4483620;32;33542;-65
2023/10/23 07:18:57;;;;;;;5.65;1.17;;;;;;;24.46;44.20;99795.75;4484184;32;34770;-65
2023/10/23 07:21:27;;;;;;;5.05;1.50;;;;;;;24.45;44.15;99791.38;4483196;32;33906;-65
2023/10/23 07:23:54;;;;;;;2.90;1.20;;;;;;;24.43;44.16;99791.59;4484051;32;35080;-65
2023/10/23 07:26:22;;;;;;;6.12;1.62;;;;;;;24.43;44.15;99800.63;4484443;32;33659;-65
2023/10/23 07:28:50;;;;;;;5.90;1.37;;;;;;;24.41;44.43;99800.03;4483960;32;34651;-66
2023/10/23 07:31:17;;;;;;;3.72;1.42;;;;;;;24.42;44.37;99803.56;4483942;32;33603;-65
2023/10/23 07:33:45;;;;;;;7.70;1.73;;;;;;;24.41;44.38;99816.38;4483140;32;33846;-66
2023/10/23 07:36:13;;;;;;;8.68;1.35;;;;;;;24.40;44.27;99812.00;4484056;32;34610;-65
2023/10/23 07:38:43;;;;;;;6.30;1.50;;;;;;;24.41;44.33;99808.19;4484209;32;34022;-69
2023/10/23 07:41:11;;;;;;;5.22;1.90;;;;;;;24.39;44.54;99806.78;4474237;31;33777;-66
2023/10/23 07:43:39;;;;;;;4.53;2.35;;;;;;;24.40;44.07;99814.72;4482925;32;34180;-66
2023/10/23 07:46:10;;;;;;;4.37;2.78;;;;;;;24.40;43.07;99816.63;4482020;32;33666;-66
2023/10/23 07:48:45;;;;;;;4.85;2.67;;;;;;;24.37;42.80;99814.34;4483518;32;34074;-66
2023/10/23 07:51:13;;;;;;;6.12;3.00;;;;;;;24.36;42.14;99820.84;4480561;32;84129;-65
2023/10/23 07:53:41;;;;;;;8.00;2.05;;;;;;;24.34;42.04;99821.09;4481914;32;34766;-65
2023/10/23 07:56:09;;;;;;;6.90;2.30;;;;;;;24.33;42.88;99829.47;4481889;32;33599;-64
2023/10/23 07:58:36;;;;;;;4.07;2.10;;;;;;;24.31;43.42;99827.00;4480587;32;33916;-64
2023/10/23 08:01:08;;;;;;;6.93;2.30;;;;;;;24.32;43.60;99822.38;4483038;32;33909;-64
2023/10/23 08:03:36;;;;;;;6.07;2.12;;;;;;;24.33;43.62;99824.03;4469068;32;34247;-65
2023/10/23 08:06:05;;;;;;;4.70;2.00;;;;;;;24.34;43.61;99812.91;4483050;32;33768;-64
2023/10/23 08:08:37;;;;;;;3.97;2.25;;;;;;;24.34;43.64;99817.50;4468974;32;34720;-65
2023/10/23 08:11:06;;;;;;;6.25;2.50;;;;;;;24.34;43.65;99814.78;4483154;32;34770;-64
2023/10/23 08:13:34;;;;;;;5.07;2.17;;;;;;;24.35;43.63;99811.84;4482836;32;33877;-64
2023/10/23 08:16:01;;;;;;;5.62;2.25;;;;;;;24.37;43.59;99800.72;4469045;32;34155;-65
2023/10/23 08:18:29;;;;;;;4.80;2.47;;;;;;;24.38;43.57;99802.37;4481613;32;34727;-65
2023/10/23 08:21:14;;;;;;;4.97;2.58;;;;;;;24.38;43.60;99799.66;4482829;32;33537;-65
2023/10/23 08:23:46;;;;;;;5.75;2.72;;;;;;;24.40;43.55;99803.00;4481683;32;34772;-65
2023/10/23 08:26:14;;;;;;;4.87;2.40;;;;;;;24.40;43.62;99800.25;4482916;32;34246;-64
2023/10/23 08:28:42;;;;;;;7.57;2.90;;;;;;;24.41;43.71;99799.19;4482815;32;33860;-65
2023/10/23 08:31:12;;;;;;;6.72;2.30;;;;;;;24.42;43.86;99809.03;4483052;32;35466;-64
2023/10/23 08:34:00;;;;;;;5.15;2.30;;;;;;;24.43;43.97;99810.69;4484894;32;34838;-64
2023/10/23 08:36:28;;;;;;;4.90;2.30;;;;;;;24.46;44.06;99806.69;4474042;32;34420;-65
2023/10/23 08:38:56;;;;;;;7.97;2.95;;;;;;;24.47;44.28;99791.97;4484745;32;33608;-65
2023/10/23 08:41:23;;;;;;;6.40;2.40;;;;;;;24.48;44.58;99790.91;4483470;32;33592;-65
2023/10/23 08:43:51;;;;;;;6.32;2.30;;;;;;;24.50;44.75;99802.41;4481879;32;34165;-65
2023/10/23 08:46:19;;;;;;;7.65;2.58;;;;;;;24.53;44.80;99796.47;4484788;32;34373;-65
2023/10/23 08:48:47;;;;;;;6.15;2.40;;;;;;;24.52;44.77;99792.91;4483654;32;34092;-65
2023/10/23 08:51:15;;;;;;;8.07;2.87;;;;;;;24.54;44.77;99795.44;4484594;32;34779;-66
2023/10/23 08:53:49;;;;;;;8.70;2.42;;;;;;;24.54;44.80;99785.34;4470334;32;34112;-65
2023/10/23 08:56:37;;;;;;;7.12;2.37;;;;;;;24.58;44.79;99789.28;4483543;32;34568;-65
2023/10/23 08:59:05;;;;;;;6.68;1.92;;;;;;;24.60;44.72;99797.22;4483414;32;33926;-64
2023/10/23 09:01:33;;;;;;;5.18;2.08;;;;;;;24.58;44.74;99797.47;4484269;32;34006;-64
2023/10/23 09:04:04;;;;;;;7.22;2.40;;;;;;;24.59;44.70;99796.38;4483218;32;34548;-64
2023/10/23 09:06:35;;;;;;;8.82;1.85;;;;;;;24.58;44.77;99796.63;4484652;32;33564;-64
2023/10/23 09:09:04;;;;;;;;;;;;;;;24.58;44.73;99804.81;4484837;32;34003;-65
2023/10/23 09:11:46;;;;;;;5.60;2.17;;;;;;;24.65;44.58;99806.34;4483392;32;34848;-64
2023/10/23 09:14:35;;;;;;;6.47;2.47;;;;;;;24.57;44.73;99801.22;4483482;32;34088;-65
2023/10/23 09:17:05;;;;;;;7.90;2.10;;;;;;;24.56;44.79;99805.03;4484738;32;33566;-64
2023/10/23 09:19:36;;;;;;;6.95;2.22;;;;;;;24.53;44.83;99813.72;4484433;32;34583;-64
2023/10/23 09:22:06;;;;;;;6.80;2.25;;;;;;;24.53;44.82;99807.38;4484353;32;33902;-65
2023/10/23 09:24:35;;;;;;;7.30;1.90;;;;;;;24.54;44.81;99803.63;4472017;32;35017;-65
2023/10/23 09:27:03;;;;;;;5.47;2.55;;;;;;;24.54;44.78;99809.06;4477562;32;34452;-65
2023/10/23 09:29:30;;;;;;;6.62;2.90;;;;;;;24.51;44.82;99796.72;4484270;32;33459;-65
2023/10/23 09:31:58;;;;;;;4.80;1.85;;;;;;;24.52;44.78;99794.81;4463228;32;34706;-64
2023/10/23 09:34:28;;;;;;;5.65;1.75;;;;;;;24.52;44.81;99801.09;4483925;32;33878;-64
2023/10/23 09:36:55;;;;;;;5.82;2.20;;;;;;;24.52;44.80;99798.38;4470293;32;33354;-64
2023/10/23 09:39:24;;;;;;;6.62;2.53;;;;;;;24.52;44.79;99795.66;4484524;32;34584;-64
2023/10/23 09:41:52;;;;;;;4.20;1.90;;;;;;;24.53;44.80;99796.47;4497950;31;34034;-64
2023/10/23 09:44:20;;;;;;;6.55;2.00;;;;;;;24.51;44.81;99794.00;4498493;31;34276;-64
2023/10/23 09:46:50;;;;;;;8.35;2.47;;;;;;;24.53;44.79;99799.22;4485266;31;34233;-65
2023/10/23 09:49:17;;;;;;;5.80;2.35;;;;;;;24.52;44.83;99795.66;4497944;31;34651;-67
2023/10/23 09:51:47;;;;;;;3.58;2.10;;;;;;;24.55;44.83;99805.28;4484662;31;34983;-69
2023/10/23 09:54:17;;;;;;;9.18;2.28;;;;;;;24.54;44.81;99807.19;4476436;32;34955;-68
2023/10/23 09:56:51;;;;;;;6.70;2.12;;;;;;;24.56;44.66;99812.38;4482659;32;33282;-70
2023/10/23 09:59:24;;;;;;;12.45;1.80;;;;;;;24.53;44.62;99800.06;4482161;32;34658;-67
2023/10/23 10:01:51;;;;;;;8.27;2.40;;;;;;;24.52;44.52;99803.00;4481771;32;33899;-67
2023/10/23 10:04:32;;;;;;;6.40;2.03;;;;;;;24.52;44.34;99801.09;4469145;32;34100;-69
2023/10/23 10:07:09;;;;;;;4.90;2.00;;;;;;;24.51;43.75;99796.72;4483351;32;33104;-67
2023/10/23 10:09:38;;;;;;;7.95;2.83;;;;;;;24.49;43.76;99785.22;4469803;32;34821;-66
2023/10/23 10:12:05;;;;;;;4.97;2.10;;;;;;;24.48;43.59;99783.56;4469115;32;33901;-67
2023/10/23 10:14:33;;;;;;;8.20;2.10;;;;;;;24.47;43.72;99790.06;4468162;32;34201;-68
2023/10/23 10:17:01;;;;;;;8.25;2.15;;;;;;;24.48;43.68;99788.16;4482970;32;33194;-69
2023/10/23 10:19:28;;;;;;;5.43;2.30;;;;;;;24.48;43.70;99791.75;4482968;32;34218;-69
2023/10/23 10:22:04;;;;;;;5.93;2.22;;;;;;;24.46;43.70;99782.97;4482688;32;33740;-70
2023/10/23 10:24:33;;;;;;;6.32;2.17;;;;;;;24.46;43.46;99791.12;4469796;32;34807;-69
2023/10/23 10:27:01;;;;;;;5.37;2.30;;;;;;;24.45;43.48;99789.47;4464333;32;34274;-66
2023/10/23 10:29:28;;;;;;;7.35;2.33;;;;;;;24.45;43.37;99775.84;4467692;32;34366;-68
2023/10/23 10:32:06;;;;;;;4.57;2.28;;;;;;;24.45;43.39;99777.75;4469964;32;33911;-66
2023/10/23 10:34:48;;;;;;;5.10;1.92;;;;;;;24.46;43.30;99780.22;4484061;32;34932;-68
2023/10/23 10:37:27;;;;;;;7.43;2.03;;;;;;;24.45;43.17;99772.28;4484161;32;33475;-65
2023/10/23 10:40:03;;;;;;;5.72;2.33;;;;;;;24.42;43.19;99768.94;4482963;31;33543;-69
2023/10/23 10:42:35;;;;;;;3.95;1.87;;;;;;;24.44;43.19;99760.56;4482610;32;34688;-66
2023/10/23 10:45:06;;;;;;;4.62;1.90;;;;;;;24.43;43.15;99765.19;4474378;32;33705;-68
2023/10/23 10:47:41;;;;;;;3.58;1.80;;;;;;;24.43;43.15;99758.88;4484226;32;33817;-69
2023/10/23 10:50:10;;;;;;;3.58;1.52;;;;;;;24.43;43.09;99765.19;4480591;32;34613;-66
2023/10/23 10:52:39;;;;;;;5.03;1.83;;;;;;;24.42;43.10;99768.12;4468932;32;33960;-66
2023/10/23 10:55:08;;;;;;;3.40;1.75;;;;;;;24.42;43.09;99765.41;4465431;32;34069;-68
2023/10/23 10:57:45;;;;;;;3.17;1.60;;;;;;;24.42;43.08;99765.41;4457420;32;33207;-67
2023/10/23 11:00:13;;;;;;;3.22;1.58;;;;;;;24.43;42.98;99761.59;4457260;32;32764;-65
2023/10/23 11:02:40;;;;;;;6.40;2.45;;;;;;;24.42;42.88;99765.41;4483533;32;34653;-65
2023/10/23 11:05:12;;;;;;;3.97;1.92;;;;;;;24.41;42.89;99758.28;4482556;32;33854;-65
2023/10/23 11:07:40;;;;;;;4.53;2.03;;;;;;;24.42;42.89;99771.69;4482492;32;33280;-67
2023/10/23 11:10:09;;;;;;;4.35;1.77;;;;;;;24.44;42.85;99768.75;4466557;32;33814;-68
2023/10/23 11:12:36;;;;;;;2.87;1.73;;;;;;;24.41;42.82;99767.28;4467934;32;33908;-67
2023/10/23 11:15:05;;;;;;;3.90;1.52;;;;;;;24.42;42.76;99762.66;4475752;32;33975;-68
2023/10/23 11:17:33;;;;;;;3.78;1.50;;;;;;;24.41;42.79;99763.75;4483176;32;33120;-68
2023/10/23 11:20:14;;;;;;;2.62;1.42;;;;;;;24.42;42.72;99762.66;4479624;32;33840;-69
2023/10/23 11:22:43;;;;;;;2.37;1.50;;;;;;;24.41;42.55;99759.13;4468119;32;33782;-68
2023/10/23 11:25:11;;;;;;;5.10;1.62;;;;;;;24.41;42.52;99756.38;4482512;32;35054;-68
2023/10/23 11:27:39;;;;;;;3.10;1.75;;;;;;;24.40;42.52;99743.81;4469169;32;33559;-67
2023/10/23 11:30:07;;;;;;;3.53;1.50;;;;;;;24.39;42.51;99736.72;4469477;32;33831;-66
2023/10/23 11:32:35;;;;;;;5.70;1.62;;;;;;;24.39;42.57;99738.62;4483547;32;34031;-65
2023/10/23 11:35:04;;;;;;;3.05;1.40;;;;;;;24.40;42.49;99734.81;4483403;32;35466;-70
2023/10/23 11:37:36;;;;;;;4.85;1.55;;;;;;;24.39;42.48;99724.97;4469745;32;34093;-69
2023/10/23 11:40:05;;;;;;;4.90;1.75;;;;;;;24.41;42.43;99729.13;4482488;32;33922;-69
2023/10/23 11:42:48;;;;;;;2.92;1.40;;;;;;;24.40;42.32;99715.72;4483580;32;34082;-69